sensor_id;sensor_type;location;lat;lon;timestamp;P1;durP1;ratioP1;P2;durP2;ratioP2
15633;SDS011;14654;48.898;8.308;2024-02-23T00:02:13;2.37;;;1.00;;
15633;SDS011;14654;48.898;8.308;2024-02-23T00:04:38;2.00;;;0.70;;
15633;SDS011;14654;48.898;8.308;2024-02-23T00:07:03;2.37;;;0.70;;
15633;SDS011;14654;48.898;8.308;2024-02-23T00:09:29;2.40;;;1.00;;
15633;SDS011;14654;48.898;8.308;2024-02-23T00:11:54;3.83;;;0.83;;
15633;SDS011;14654;48.898;8.308;2024-02-23T00:14:20;2.57;;;0.80;;
15633;SDS011;14654;48.898;8.308;2024-02-23T00:16:46;4.23;;;0.80;;
15633;SDS011;14654;48.898;8.308;2024-02-23T00:19:11;3.30;;;0.90;;
15633;SDS011;14654;48.898;8.308;2024-02-23T00:21:36;2.57;;;0.90;;
15633;SDS011;14654;48.898;8.308;2024-02-23T00:24:03;3.87;;;1.10;;
15633;SDS011;14654;48.898;8.308;2024-02-23T00:26:28;1.73;;;0.60;;
15633;SDS011;14654;48.898;8.308;2024-02-23T00:28:54;4.27;;;1.37;;
15633;SDS011;14654;48.898;8.308;2024-02-23T00:31:20;2.03;;;0.73;;
15633;SDS011;14654;48.898;8.308;2024-02-23T00:33:46;1.73;;;0.70;;
15633;SDS011;14654;48.898;8.308;2024-02-23T00:36:11;1.43;;;1.10;;
15633;SDS011;14654;48.898;8.308;2024-02-23T00:38:36;3.00;;;0.77;;
15633;SDS011;14654;48.898;8.308;2024-02-23T00:41:02;2.27;;;1.10;;
15633;SDS011;14654;48.898;8.308;2024-02-23T00:43:27;1.87;;;0.80;;
15633;SDS011;14654;48.898;8.308;2024-02-23T00:45:54;2.00;;;0.67;;
15633;SDS011;14654;48.898;8.308;2024-02-23T00:48:20;4.77;;;1.13;;
15633;SDS011;14654;48.898;8.308;2024-02-23T00:50:45;4.27;;;0.97;;
15633;SDS011;14654;48.898;8.308;2024-02-23T00:53:10;2.40;;;0.80;;
15633;SDS011;14654;48.898;8.308;2024-02-23T00:55:36;2.70;;;1.00;;
15633;SDS011;14654;48.898;8.308;2024-02-23T00:58:01;2.03;;;1.00;;
15633;SDS011;14654;48.898;8.308;2024-02-23T01:00:27;2.73;;;1.37;;
15633;SDS011;14654;48.898;8.308;2024-02-23T01:02:52;3.77;;;1.17;;
15633;SDS011;14654;48.898;8.308;2024-02-23T01:05:18;2.60;;;1.07;;
15633;SDS011;14654;48.898;8.308;2024-02-23T01:07:43;2.80;;;1.00;;
15633;SDS011;14654;48.898;8.308;2024-02-23T01:10:09;2.80;;;1.03;;
15633;SDS011;14654;48.898;8.308;2024-02-23T01:12:34;2.47;;;0.87;;
15633;SDS011;14654;48.898;8.308;2024-02-23T01:15:01;2.17;;;0.97;;
15633;SDS011;14654;48.898;8.308;2024-02-23T01:17:27;5.20;;;1.40;;
15633;SDS011;14654;48.898;8.308;2024-02-23T01:19:53;2.23;;;1.07;;
15633;SDS011;14654;48.898;8.308;2024-02-23T01:22:18;2.57;;;0.80;;
15633;SDS011;14654;48.898;8.308;2024-02-23T01:24:43;2.07;;;0.70;;
15633;SDS011;14654;48.898;8.308;2024-02-23T01:27:09;2.87;;;0.90;;
15633;SDS011;14654;48.898;8.308;2024-02-23T01:29:34;1.30;;;0.60;;
15633;SDS011;14654;48.898;8.308;2024-02-23T01:31:59;1.53;;;0.60;;
15633;SDS011;14654;48.898;8.308;2024-02-23T01:34:25;1.63;;;0.70;;
15633;SDS011;14654;48.898;8.308;2024-02-23T01:36:50;1.63;;;0.70;;
15633;SDS011;14654;48.898;8.308;2024-02-23T01:39:16;2.20;;;0.70;;
15633;SDS011;14654;48.898;8.308;2024-02-23T01:41:41;3.47;;;0.83;;
15633;SDS011;14654;48.898;8.308;2024-02-23T01:44:08;1.73;;;0.80;;
15633;SDS011;14654;48.898;8.308;2024-02-23T01:46:34;1.90;;;0.63;;
15633;SDS011;14654;48.898;8.308;2024-02-23T01:49:00;3.03;;;1.00;;
15633;SDS011;14654;48.898;8.308;2024-02-23T01:51:25;2.33;;;0.73;;
15633;SDS011;14654;48.898;8.308;2024-02-23T01:53:51;2.53;;;0.60;;
15633;SDS011;14654;48.898;8.308;2024-02-23T01:56:17;2.30;;;0.67;;
15633;SDS011;14654;48.898;8.308;2024-02-23T01:58:45;3.30;;;1.00;;
15633;SDS011;14654;48.898;8.308;2024-02-23T02:01:11;1.63;;;0.67;;
15633;SDS011;14654;48.898;8.308;2024-02-23T02:03:38;2.87;;;0.50;;
15633;SDS011;14654;48.898;8.308;2024-02-23T02:06:04;1.53;;;0.63;;
15633;SDS011;14654;48.898;8.308;2024-02-23T02:08:31;1.23;;;0.50;;
15633;SDS011;14654;48.898;8.308;2024-02-23T02:10:58;2.70;;;0.60;;
15633;SDS011;14654;48.898;8.308;2024-02-23T02:13:23;1.90;;;0.40;;
15633;SDS011;14654;48.898;8.308;2024-02-23T02:15:49;2.50;;;0.60;;
15633;SDS011;14654;48.898;8.308;2024-02-23T02:18:14;1.63;;;0.73;;
15633;SDS011;14654;48.898;8.308;2024-02-23T02:20:40;1.20;;;0.67;;
15633;SDS011;14654;48.898;8.308;2024-02-23T02:23:17;0.77;;;0.53;;
15633;SDS011;14654;48.898;8.308;2024-02-23T02:25:43;2.43;;;1.00;;
15633;SDS011;14654;48.898;8.308;2024-02-23T02:28:08;0.90;;;0.53;;
15633;SDS011;14654;48.898;8.308;2024-02-23T02:30:33;1.40;;;0.90;;
15633;SDS011;14654;48.898;8.308;2024-02-23T02:32:58;1.53;;;0.70;;
15633;SDS011;14654;48.898;8.308;2024-02-23T02:35:24;3.17;;;0.60;;
15633;SDS011;14654;48.898;8.308;2024-02-23T02:37:49;3.03;;;0.80;;
15633;SDS011;14654;48.898;8.308;2024-02-23T02:40:14;3.67;;;1.03;;
15633;SDS011;14654;48.898;8.308;2024-02-23T02:42:39;2.13;;;0.80;;
15633;SDS011;14654;48.898;8.308;2024-02-23T02:45:05;0.97;;;0.70;;
15633;SDS011;14654;48.898;8.308;2024-02-23T02:47:31;2.13;;;0.77;;
15633;SDS011;14654;48.898;8.308;2024-02-23T02:49:56;2.13;;;0.80;;
15633;SDS011;14654;48.898;8.308;2024-02-23T02:52:21;2.03;;;0.73;;
15633;SDS011;14654;48.898;8.308;2024-02-23T02:54:48;1.17;;;0.70;;
15633;SDS011;14654;48.898;8.308;2024-02-23T02:57:14;2.50;;;0.90;;
15633;SDS011;14654;48.898;8.308;2024-02-23T02:59:39;1.70;;;0.87;;
15633;SDS011;14654;48.898;8.308;2024-02-23T03:02:04;3.00;;;0.70;;
15633;SDS011;14654;48.898;8.308;2024-02-23T03:04:30;2.50;;;0.83;;
15633;SDS011;14654;48.898;8.308;2024-02-23T03:06:55;2.57;;;0.70;;
15633;SDS011;14654;48.898;8.308;2024-02-23T03:09:20;1.60;;;0.67;;
15633;SDS011;14654;48.898;8.308;2024-02-23T03:11:46;3.50;;;1.10;;
15633;SDS011;14654;48.898;8.308;2024-02-23T03:14:11;2.70;;;0.70;;
15633;SDS011;14654;48.898;8.308;2024-02-23T03:16:37;1.30;;;0.70;;
15633;SDS011;14654;48.898;8.308;2024-02-23T03:19:02;1.57;;;0.60;;
15633;SDS011;14654;48.898;8.308;2024-02-23T03:21:28;2.13;;;0.50;;
15633;SDS011;14654;48.898;8.308;2024-02-23T03:23:54;0.60;;;0.40;;
15633;SDS011;14654;48.898;8.308;2024-02-23T03:26:19;1.60;;;0.60;;
15633;SDS011;14654;48.898;8.308;2024-02-23T03:28:45;2.97;;;0.90;;
15633;SDS011;14654;48.898;8.308;2024-02-23T03:31:10;1.43;;;0.73;;
15633;SDS011;14654;48.898;8.308;2024-02-23T03:33:35;1.60;;;0.70;;
15633;SDS011;14654;48.898;8.308;2024-02-23T03:36:02;0.63;;;0.50;;
15633;SDS011;14654;48.898;8.308;2024-02-23T03:38:28;1.80;;;0.60;;
15633;SDS011;14654;48.898;8.308;2024-02-23T03:40:54;1.90;;;0.80;;
15633;SDS011;14654;48.898;8.308;2024-02-23T03:43:20;1.30;;;0.60;;
15633;SDS011;14654;48.898;8.308;2024-02-23T03:45:46;2.57;;;0.60;;
15633;SDS011;14654;48.898;8.308;2024-02-23T03:48:11;3.13;;;0.87;;
15633;SDS011;14654;48.898;8.308;2024-02-23T03:50:37;2.17;;;0.63;;
15633;SDS011;14654;48.898;8.308;2024-02-23T03:53:02;2.83;;;0.57;;
15633;SDS011;14654;48.898;8.308;2024-02-23T03:55:28;1.00;;;0.60;;
15633;SDS011;14654;48.898;8.308;2024-02-23T03:57:54;2.97;;;1.00;;
15633;SDS011;14654;48.898;8.308;2024-02-23T04:00:19;2.57;;;0.80;;
15633;SDS011;14654;48.898;8.308;2024-02-23T04:02:45;1.60;;;0.60;;
15633;SDS011;14654;48.898;8.308;2024-02-23T04:05:11;1.17;;;0.60;;
15633;SDS011;14654;48.898;8.308;2024-02-23T04:07:36;3.30;;;1.00;;
15633;SDS011;14654;48.898;8.308;2024-02-23T04:10:01;3.60;;;1.10;;
15633;SDS011;14654;48.898;8.308;2024-02-23T04:12:29;2.33;;;0.70;;
15633;SDS011;14654;48.898;8.308;2024-02-23T04:14:56;3.13;;;0.80;;
15633;SDS011;14654;48.898;8.308;2024-02-23T04:17:21;2.43;;;0.90;;
15633;SDS011;14654;48.898;8.308;2024-02-23T04:19:46;3.37;;;1.00;;
15633;SDS011;14654;48.898;8.308;2024-02-23T04:22:12;2.50;;;0.80;;
15633;SDS011;14654;48.898;8.308;2024-02-23T04:24:40;1.73;;;0.70;;
15633;SDS011;14654;48.898;8.308;2024-02-23T04:27:07;2.83;;;0.90;;
15633;SDS011;14654;48.898;8.308;2024-02-23T04:29:33;3.23;;;0.97;;
15633;SDS011;14654;48.898;8.308;2024-02-23T04:31:59;1.40;;;0.70;;
15633;SDS011;14654;48.898;8.308;2024-02-23T04:34:25;2.77;;;0.83;;
15633;SDS011;14654;48.898;8.308;2024-02-23T04:36:51;1.97;;;0.90;;
15633;SDS011;14654;48.898;8.308;2024-02-23T04:39:16;1.73;;;0.63;;
15633;SDS011;14654;48.898;8.308;2024-02-23T04:41:41;3.30;;;0.87;;
15633;SDS011;14654;48.898;8.308;2024-02-23T04:44:07;2.10;;;0.73;;
15633;SDS011;14654;48.898;8.308;2024-02-23T04:46:32;1.33;;;0.77;;
15633;SDS011;14654;48.898;8.308;2024-02-23T04:48:59;2.03;;;0.70;;
15633;SDS011;14654;48.898;8.308;2024-02-23T04:51:24;1.73;;;0.77;;
15633;SDS011;14654;48.898;8.308;2024-02-23T04:53:50;1.90;;;0.83;;
15633;SDS011;14654;48.898;8.308;2024-02-23T04:56:15;1.47;;;0.70;;
15633;SDS011;14654;48.898;8.308;2024-02-23T04:58:40;3.27;;;0.90;;
15633;SDS011;14654;48.898;8.308;2024-02-23T05:01:07;2.10;;;0.60;;
15633;SDS011;14654;48.898;8.308;2024-02-23T05:03:33;1.63;;;0.70;;
15633;SDS011;14654;48.898;8.308;2024-02-23T05:05:58;1.10;;;0.70;;
15633;SDS011;14654;48.898;8.308;2024-02-23T05:08:23;2.97;;;0.80;;
15633;SDS011;14654;48.898;8.308;2024-02-23T05:10:49;4.63;;;1.10;;
15633;SDS011;14654;48.898;8.308;2024-02-23T05:13:15;3.10;;;1.00;;
15633;SDS011;14654;48.898;8.308;2024-02-23T05:15:41;1.17;;;0.67;;
15633;SDS011;14654;48.898;8.308;2024-02-23T05:18:06;2.03;;;0.97;;
15633;SDS011;14654;48.898;8.308;2024-02-23T05:20:32;1.90;;;0.70;;
15633;SDS011;14654;48.898;8.308;2024-02-23T05:22:57;2.03;;;0.67;;
15633;SDS011;14654;48.898;8.308;2024-02-23T05:25:22;1.97;;;0.63;;
15633;SDS011;14654;48.898;8.308;2024-02-23T05:27:48;1.37;;;0.53;;
15633;SDS011;14654;48.898;8.308;2024-02-23T05:30:13;2.13;;;0.70;;
15633;SDS011;14654;48.898;8.308;2024-02-23T05:32:38;0.70;;;0.50;;
15633;SDS011;14654;48.898;8.308;2024-02-23T05:35:04;2.67;;;0.80;;
15633;SDS011;14654;48.898;8.308;2024-02-23T05:37:30;2.40;;;0.60;;
15633;SDS011;14654;48.898;8.308;2024-02-23T05:39:55;1.97;;;0.77;;
15633;SDS011;14654;48.898;8.308;2024-02-23T05:42:20;1.40;;;0.67;;
15633;SDS011;14654;48.898;8.308;2024-02-23T05:44:46;1.90;;;0.60;;
15633;SDS011;14654;48.898;8.308;2024-02-23T05:47:13;1.80;;;0.90;;
15633;SDS011;14654;48.898;8.308;2024-02-23T05:49:39;1.40;;;0.70;;
15633;SDS011;14654;48.898;8.308;2024-02-23T05:52:04;2.10;;;0.77;;
15633;SDS011;14654;48.898;8.308;2024-02-23T05:54:29;2.27;;;0.90;;
15633;SDS011;14654;48.898;8.308;2024-02-23T05:56:55;2.77;;;1.07;;
15633;SDS011;14654;48.898;8.308;2024-02-23T05:59:20;2.60;;;1.03;;
15633;SDS011;14654;48.898;8.308;2024-02-23T06:01:45;1.50;;;0.70;;
15633;SDS011;14654;48.898;8.308;2024-02-23T06:04:10;1.63;;;0.60;;
15633;SDS011;14654;48.898;8.308;2024-02-23T06:06:36;1.93;;;0.60;;
15633;SDS011;14654;48.898;8.308;2024-02-23T06:09:01;2.30;;;1.03;;
15633;SDS011;14654;48.898;8.308;2024-02-23T06:11:27;2.20;;;0.80;;
15633;SDS011;14654;48.898;8.308;2024-02-23T06:13:53;4.27;;;0.87;;
15633;SDS011;14654;48.898;8.308;2024-02-23T06:16:18;1.50;;;0.60;;
15633;SDS011;14654;48.898;8.308;2024-02-23T06:18:43;1.77;;;0.90;;
15633;SDS011;14654;48.898;8.308;2024-02-23T06:21:15;2.53;;;0.97;;
15633;SDS011;14654;48.898;8.308;2024-02-23T06:23:42;2.10;;;1.00;;
15633;SDS011;14654;48.898;8.308;2024-02-23T06:26:08;1.53;;;0.80;;
15633;SDS011;14654;48.898;8.308;2024-02-23T06:28:33;3.37;;;0.97;;
15633;SDS011;14654;48.898;8.308;2024-02-23T06:30:59;3.00;;;0.90;;
15633;SDS011;14654;48.898;8.308;2024-02-23T06:33:24;1.90;;;0.50;;
15633;SDS011;14654;48.898;8.308;2024-02-23T06:35:50;3.53;;;1.20;;
15633;SDS011;14654;48.898;8.308;2024-02-23T06:38:17;2.03;;;0.80;;
15633;SDS011;14654;48.898;8.308;2024-02-23T06:40:42;1.50;;;0.70;;
15633;SDS011;14654;48.898;8.308;2024-02-23T06:43:08;6.07;;;1.20;;
15633;SDS011;14654;48.898;8.308;2024-02-23T06:45:33;1.90;;;0.83;;
15633;SDS011;14654;48.898;8.308;2024-02-23T06:47:58;2.67;;;1.03;;
15633;SDS011;14654;48.898;8.308;2024-02-23T06:50:23;4.43;;;1.10;;
15633;SDS011;14654;48.898;8.308;2024-02-23T06:52:49;2.10;;;1.10;;
15633;SDS011;14654;48.898;8.308;2024-02-23T06:55:14;2.63;;;1.33;;
15633;SDS011;14654;48.898;8.308;2024-02-23T06:57:40;2.80;;;1.43;;
15633;SDS011;14654;48.898;8.308;2024-02-23T07:00:05;4.30;;;1.30;;
15633;SDS011;14654;48.898;8.308;2024-02-23T07:02:32;2.73;;;1.37;;
15633;SDS011;14654;48.898;8.308;2024-02-23T07:05:01;5.20;;;1.63;;
15633;SDS011;14654;48.898;8.308;2024-02-23T07:07:29;3.27;;;1.47;;
15633;SDS011;14654;48.898;8.308;2024-02-23T07:09:55;2.83;;;1.40;;
15633;SDS011;14654;48.898;8.308;2024-02-23T07:12:20;1.77;;;1.20;;
15633;SDS011;14654;48.898;8.308;2024-02-23T07:14:46;3.63;;;1.13;;
15633;SDS011;14654;48.898;8.308;2024-02-23T07:17:11;3.70;;;1.60;;
15633;SDS011;14654;48.898;8.308;2024-02-23T07:19:36;1.97;;;1.07;;
15633;SDS011;14654;48.898;8.308;2024-02-23T07:22:02;1.80;;;0.80;;
15633;SDS011;14654;48.898;8.308;2024-02-23T07:24:27;1.90;;;0.90;;
15633;SDS011;14654;48.898;8.308;2024-02-23T07:26:52;1.37;;;0.90;;
15633;SDS011;14654;48.898;8.308;2024-02-23T07:29:18;3.13;;;0.93;;
15633;SDS011;14654;48.898;8.308;2024-02-23T07:31:44;2.10;;;1.00;;
15633;SDS011;14654;48.898;8.308;2024-02-23T07:34:09;3.17;;;0.90;;
15633;SDS011;14654;48.898;8.308;2024-02-23T07:36:35;2.93;;;1.33;;
15633;SDS011;14654;48.898;8.308;2024-02-23T07:39:00;3.10;;;1.00;;
15633;SDS011;14654;48.898;8.308;2024-02-23T07:41:25;1.57;;;0.87;;
15633;SDS011;14654;48.898;8.308;2024-02-23T07:43:51;5.53;;;1.53;;
15633;SDS011;14654;48.898;8.308;2024-02-23T07:46:16;1.40;;;0.87;;
15633;SDS011;14654;48.898;8.308;2024-02-23T07:48:41;1.20;;;0.60;;
15633;SDS011;14654;48.898;8.308;2024-02-23T07:51:07;0.77;;;0.53;;
15633;SDS011;14654;48.898;8.308;2024-02-23T07:53:32;1.47;;;0.80;;
15633;SDS011;14654;48.898;8.308;2024-02-23T07:55:58;2.37;;;0.90;;
15633;SDS011;14654;48.898;8.308;2024-02-23T07:58:27;2.33;;;0.80;;
15633;SDS011;14654;48.898;8.308;2024-02-23T08:00:52;3.27;;;1.13;;
15633;SDS011;14654;48.898;8.308;2024-02-23T08:03:18;3.30;;;1.10;;
15633;SDS011;14654;48.898;8.308;2024-02-23T08:05:44;1.60;;;0.80;;
15633;SDS011;14654;48.898;8.308;2024-02-23T08:08:09;3.20;;;1.00;;
15633;SDS011;14654;48.898;8.308;2024-02-23T08:10:34;2.83;;;0.93;;
15633;SDS011;14654;48.898;8.308;2024-02-23T08:13:00;1.13;;;0.93;;
15633;SDS011;14654;48.898;8.308;2024-02-23T08:15:25;2.73;;;0.93;;
15633;SDS011;14654;48.898;8.308;2024-02-23T08:17:50;2.43;;;0.97;;
15633;SDS011;14654;48.898;8.308;2024-02-23T08:20:16;2.83;;;1.00;;
15633;SDS011;14654;48.898;8.308;2024-02-23T08:22:41;2.10;;;0.97;;
15633;SDS011;14654;48.898;8.308;2024-02-23T08:25:07;3.00;;;0.73;;
15633;SDS011;14654;48.898;8.308;2024-02-23T08:27:33;2.30;;;1.00;;
15633;SDS011;14654;48.898;8.308;2024-02-23T08:29:58;3.90;;;1.20;;
15633;SDS011;14654;48.898;8.308;2024-02-23T08:32:24;4.40;;;1.20;;
15633;SDS011;14654;48.898;8.308;2024-02-23T08:34:49;3.00;;;0.90;;
15633;SDS011;14654;48.898;8.308;2024-02-23T08:37:15;2.83;;;1.30;;
15633;SDS011;14654;48.898;8.308;2024-02-23T08:39:41;2.23;;;1.10;;
15633;SDS011;14654;48.898;8.308;2024-02-23T08:42:06;2.47;;;1.30;;
15633;SDS011;14654;48.898;8.308;2024-02-23T08:44:31;2.97;;;1.30;;
15633;SDS011;14654;48.898;8.308;2024-02-23T08:46:56;2.93;;;1.20;;
15633;SDS011;14654;48.898;8.308;2024-02-23T08:49:22;2.63;;;1.13;;
15633;SDS011;14654;48.898;8.308;2024-02-23T08:51:47;3.03;;;1.30;;
15633;SDS011;14654;48.898;8.308;2024-02-23T08:54:13;3.83;;;1.50;;
15633;SDS011;14654;48.898;8.308;2024-02-23T08:56:38;3.57;;;1.20;;
15633;SDS011;14654;48.898;8.308;2024-02-23T08:59:04;3.00;;;1.10;;
15633;SDS011;14654;48.898;8.308;2024-02-23T09:01:30;5.90;;;1.77;;
15633;SDS011;14654;48.898;8.308;2024-02-23T09:03:55;3.00;;;1.23;;
15633;SDS011;14654;48.898;8.308;2024-02-23T09:06:20;2.73;;;1.23;;
15633;SDS011;14654;48.898;8.308;2024-02-23T09:08:46;3.87;;;1.57;;
15633;SDS011;14654;48.898;8.308;2024-02-23T09:11:11;5.00;;;3.00;;
15633;SDS011;14654;48.898;8.308;2024-02-23T09:13:38;2.37;;;1.00;;
15633;SDS011;14654;48.898;8.308;2024-02-23T09:16:04;2.00;;;0.90;;
15633;SDS011;14654;48.898;8.308;2024-02-23T09:18:29;4.63;;;1.60;;
15633;SDS011;14654;48.898;8.308;2024-02-23T09:20:55;2.07;;;0.90;;
15633;SDS011;14654;48.898;8.308;2024-02-23T09:23:20;3.00;;;1.17;;
15633;SDS011;14654;48.898;8.308;2024-02-23T09:25:45;2.40;;;0.97;;
15633;SDS011;14654;48.898;8.308;2024-02-23T09:28:11;4.03;;;1.20;;
15633;SDS011;14654;48.898;8.308;2024-02-23T09:30:36;2.73;;;1.00;;
15633;SDS011;14654;48.898;8.308;2024-02-23T09:33:02;1.93;;;1.20;;
15633;SDS011;14654;48.898;8.308;2024-02-23T09:35:27;3.23;;;1.13;;
15633;SDS011;14654;48.898;8.308;2024-02-23T09:37:53;3.77;;;1.40;;
15633;SDS011;14654;48.898;8.308;2024-02-23T09:40:18;4.17;;;2.37;;
15633;SDS011;14654;48.898;8.308;2024-02-23T09:42:43;3.13;;;1.50;;
15633;SDS011;14654;48.898;8.308;2024-02-23T09:45:21;5.97;;;1.30;;
15633;SDS011;14654;48.898;8.308;2024-02-23T09:47:47;5.47;;;1.43;;
15633;SDS011;14654;48.898;8.308;2024-02-23T09:50:13;2.70;;;1.30;;
15633;SDS011;14654;48.898;8.308;2024-02-23T09:52:40;4.70;;;1.43;;
15633;SDS011;14654;48.898;8.308;2024-02-23T09:55:05;2.13;;;1.00;;
15633;SDS011;14654;48.898;8.308;2024-02-23T09:57:31;2.70;;;0.93;;
15633;SDS011;14654;48.898;8.308;2024-02-23T09:59:56;4.83;;;1.53;;
15633;SDS011;14654;48.898;8.308;2024-02-23T10:02:22;4.93;;;1.40;;
15633;SDS011;14654;48.898;8.308;2024-02-23T10:04:48;3.50;;;1.20;;
15633;SDS011;14654;48.898;8.308;2024-02-23T10:07:16;3.67;;;1.57;;
15633;SDS011;14654;48.898;8.308;2024-02-23T10:09:41;2.40;;;1.17;;
15633;SDS011;14654;48.898;8.308;2024-02-23T10:12:07;2.83;;;1.23;;
15633;SDS011;14654;48.898;8.308;2024-02-23T10:14:33;3.43;;;1.37;;
15633;SDS011;14654;48.898;8.308;2024-02-23T10:16:58;1.97;;;1.20;;
15633;SDS011;14654;48.898;8.308;2024-02-23T10:19:24;3.50;;;1.23;;
15633;SDS011;14654;48.898;8.308;2024-02-23T10:21:53;2.77;;;1.13;;
15633;SDS011;14654;48.898;8.308;2024-02-23T10:24:19;2.50;;;1.33;;
15633;SDS011;14654;48.898;8.308;2024-02-23T10:26:44;3.63;;;1.40;;
15633;SDS011;14654;48.898;8.308;2024-02-23T10:29:10;3.53;;;1.40;;
15633;SDS011;14654;48.898;8.308;2024-02-23T10:31:35;5.07;;;1.50;;
15633;SDS011;14654;48.898;8.308;2024-02-23T10:34:04;4.10;;;1.43;;
15633;SDS011;14654;48.898;8.308;2024-02-23T10:36:36;5.10;;;1.40;;
15633;SDS011;14654;48.898;8.308;2024-02-23T10:39:03;2.77;;;1.20;;
15633;SDS011;14654;48.898;8.308;2024-02-23T10:41:29;1.90;;;1.00;;
15633;SDS011;14654;48.898;8.308;2024-02-23T10:43:59;3.33;;;1.40;;
15633;SDS011;14654;48.898;8.308;2024-02-23T10:46:25;1.77;;;0.97;;
15633;SDS011;14654;48.898;8.308;2024-02-23T10:48:52;3.90;;;1.30;;
15633;SDS011;14654;48.898;8.308;2024-02-23T10:51:19;3.47;;;1.13;;
15633;SDS011;14654;48.898;8.308;2024-02-23T10:53:46;4.43;;;1.27;;
15633;SDS011;14654;48.898;8.308;2024-02-23T10:56:13;4.33;;;1.30;;
15633;SDS011;14654;48.898;8.308;2024-02-23T10:58:38;4.87;;;1.40;;
15633;SDS011;14654;48.898;8.308;2024-02-23T11:01:05;2.57;;;1.37;;
15633;SDS011;14654;48.898;8.308;2024-02-23T11:03:33;2.93;;;1.10;;
15633;SDS011;14654;48.898;8.308;2024-02-23T11:06:01;3.27;;;1.37;;
15633;SDS011;14654;48.898;8.308;2024-02-23T11:08:28;2.93;;;1.20;;
15633;SDS011;14654;48.898;8.308;2024-02-23T11:10:54;2.93;;;1.30;;
15633;SDS011;14654;48.898;8.308;2024-02-23T11:13:35;3.63;;;1.00;;
15633;SDS011;14654;48.898;8.308;2024-02-23T11:16:05;2.57;;;1.03;;
15633;SDS011;14654;48.898;8.308;2024-02-23T11:18:31;5.30;;;1.80;;
15633;SDS011;14654;48.898;8.308;2024-02-23T11:20:59;3.73;;;1.53;;
15633;SDS011;14654;48.898;8.308;2024-02-23T11:23:27;4.47;;;1.87;;
15633;SDS011;14654;48.898;8.308;2024-02-23T11:26:25;3.30;;;1.23;;
15633;SDS011;14654;48.898;8.308;2024-02-23T11:28:48;3.07;;;1.37;;
15633;SDS011;14654;48.898;8.308;2024-02-23T11:31:21;2.50;;;1.33;;
15633;SDS011;14654;48.898;8.308;2024-02-23T11:33:54;2.37;;;1.30;;
15633;SDS011;14654;48.898;8.308;2024-02-23T11:36:30;5.27;;;1.70;;
15633;SDS011;14654;48.898;8.308;2024-02-23T11:38:58;3.50;;;1.27;;
15633;SDS011;14654;48.898;8.308;2024-02-23T11:41:25;3.17;;;1.30;;
15633;SDS011;14654;48.898;8.308;2024-02-23T11:43:52;3.07;;;1.60;;
15633;SDS011;14654;48.898;8.308;2024-02-23T11:46:21;2.53;;;1.30;;
15633;SDS011;14654;48.898;8.308;2024-02-23T11:48:47;3.40;;;1.33;;
15633;SDS011;14654;48.898;8.308;2024-02-23T11:51:18;1.97;;;1.07;;
15633;SDS011;14654;48.898;8.308;2024-02-23T11:53:44;5.37;;;1.80;;
15633;SDS011;14654;48.898;8.308;2024-02-23T11:56:10;3.97;;;1.50;;
15633;SDS011;14654;48.898;8.308;2024-02-23T11:58:36;3.83;;;1.07;;
15633;SDS011;14654;48.898;8.308;2024-02-23T12:01:01;3.37;;;1.30;;
15633;SDS011;14654;48.898;8.308;2024-02-23T12:03:30;4.13;;;1.57;;
15633;SDS011;14654;48.898;8.308;2024-02-23T12:05:56;3.50;;;1.80;;
15633;SDS011;14654;48.898;8.308;2024-02-23T12:08:23;3.67;;;1.30;;
15633;SDS011;14654;48.898;8.308;2024-02-23T12:10:55;3.03;;;1.33;;
15633;SDS011;14654;48.898;8.308;2024-02-23T12:13:21;2.37;;;1.40;;
15633;SDS011;14654;48.898;8.308;2024-02-23T12:15:47;2.53;;;1.20;;
15633;SDS011;14654;48.898;8.308;2024-02-23T12:18:13;2.90;;;1.20;;
15633;SDS011;14654;48.898;8.308;2024-02-23T12:20:39;3.10;;;1.80;;
15633;SDS011;14654;48.898;8.308;2024-02-23T12:23:05;3.00;;;1.30;;
15633;SDS011;14654;48.898;8.308;2024-02-23T12:25:31;2.10;;;1.30;;
15633;SDS011;14654;48.898;8.308;2024-02-23T12:27:56;5.23;;;1.60;;
15633;SDS011;14654;48.898;8.308;2024-02-23T12:30:22;2.70;;;1.30;;
15633;SDS011;14654;48.898;8.308;2024-02-23T12:32:47;2.53;;;1.50;;
15633;SDS011;14654;48.898;8.308;2024-02-23T12:35:14;4.03;;;1.30;;
15633;SDS011;14654;48.898;8.308;2024-02-23T12:37:39;3.17;;;1.20;;
15633;SDS011;14654;48.898;8.308;2024-02-23T12:40:06;2.63;;;1.53;;
15633;SDS011;14654;48.898;8.308;2024-02-23T12:42:32;3.40;;;1.20;;
15633;SDS011;14654;48.898;8.308;2024-02-23T12:44:57;3.20;;;1.43;;
15633;SDS011;14654;48.898;8.308;2024-02-23T12:47:22;4.67;;;1.57;;
15633;SDS011;14654;48.898;8.308;2024-02-23T12:49:48;3.20;;;1.77;;
15633;SDS011;14654;48.898;8.308;2024-02-23T12:52:13;2.47;;;1.30;;
15633;SDS011;14654;48.898;8.308;2024-02-23T12:54:39;3.53;;;1.30;;
15633;SDS011;14654;48.898;8.308;2024-02-23T12:57:04;2.43;;;1.00;;
15633;SDS011;14654;48.898;8.308;2024-02-23T12:59:30;2.73;;;1.30;;
15633;SDS011;14654;48.898;8.308;2024-02-23T13:01:55;2.03;;;1.47;;
15633;SDS011;14654;48.898;8.308;2024-02-23T13:04:20;2.33;;;1.30;;
15633;SDS011;14654;48.898;8.308;2024-02-23T13:06:46;3.03;;;1.53;;
15633;SDS011;14654;48.898;8.308;2024-02-23T13:09:12;2.03;;;1.20;;
15633;SDS011;14654;48.898;8.308;2024-02-23T13:11:39;2.57;;;1.30;;
15633;SDS011;14654;48.898;8.308;2024-02-23T13:14:05;2.40;;;1.30;;
15633;SDS011;14654;48.898;8.308;2024-02-23T13:16:30;3.10;;;1.37;;
15633;SDS011;14654;48.898;8.308;2024-02-23T13:18:56;2.77;;;1.47;;
15633;SDS011;14654;48.898;8.308;2024-02-23T13:21:21;3.33;;;1.07;;
15633;SDS011;14654;48.898;8.308;2024-02-23T13:23:46;3.13;;;1.40;;
15633;SDS011;14654;48.898;8.308;2024-02-23T13:26:12;2.00;;;1.10;;
15633;SDS011;14654;48.898;8.308;2024-02-23T13:28:39;2.10;;;1.00;;
15633;SDS011;14654;48.898;8.308;2024-02-23T13:31:09;3.40;;;1.33;;
15633;SDS011;14654;48.898;8.308;2024-02-23T13:33:34;2.33;;;0.90;;
15633;SDS011;14654;48.898;8.308;2024-02-23T13:36:00;1.83;;;0.80;;
15633;SDS011;14654;48.898;8.308;2024-02-23T13:38:25;2.43;;;1.30;;
15633;SDS011;14654;48.898;8.308;2024-02-23T13:40:50;2.80;;;1.20;;
15633;SDS011;14654;48.898;8.308;2024-02-23T13:43:16;2.50;;;1.00;;
15633;SDS011;14654;48.898;8.308;2024-02-23T13:45:52;2.13;;;1.10;;
15633;SDS011;14654;48.898;8.308;2024-02-23T13:48:18;3.27;;;1.00;;
15633;SDS011;14654;48.898;8.308;2024-02-23T13:50:47;2.43;;;1.27;;
15633;SDS011;14654;48.898;8.308;2024-02-23T13:53:13;3.00;;;1.23;;
15633;SDS011;14654;48.898;8.308;2024-02-23T13:55:39;2.90;;;1.27;;
15633;SDS011;14654;48.898;8.308;2024-02-23T13:58:07;2.47;;;1.30;;
15633;SDS011;14654;48.898;8.308;2024-02-23T14:00:33;3.23;;;1.50;;
15633;SDS011;14654;48.898;8.308;2024-02-23T14:02:58;2.30;;;1.20;;
15633;SDS011;14654;48.898;8.308;2024-02-23T14:05:23;2.27;;;1.20;;
15633;SDS011;14654;48.898;8.308;2024-02-23T14:07:50;3.97;;;1.30;;
15633;SDS011;14654;48.898;8.308;2024-02-23T14:10:16;3.03;;;1.30;;
15633;SDS011;14654;48.898;8.308;2024-02-23T14:12:41;2.23;;;1.13;;
15633;SDS011;14654;48.898;8.308;2024-02-23T14:15:07;2.87;;;1.10;;
15633;SDS011;14654;48.898;8.308;2024-02-23T14:17:34;2.30;;;1.17;;
15633;SDS011;14654;48.898;8.308;2024-02-23T14:19:59;2.40;;;1.00;;
15633;SDS011;14654;48.898;8.308;2024-02-23T14:22:25;3.00;;;1.20;;
15633;SDS011;14654;48.898;8.308;2024-02-23T14:24:52;1.77;;;1.00;;
15633;SDS011;14654;48.898;8.308;2024-02-23T14:27:18;1.60;;;0.93;;
15633;SDS011;14654;48.898;8.308;2024-02-23T14:29:43;2.10;;;1.00;;
15633;SDS011;14654;48.898;8.308;2024-02-23T14:32:09;2.43;;;1.00;;
15633;SDS011;14654;48.898;8.308;2024-02-23T14:34:35;1.10;;;0.80;;
15633;SDS011;14654;48.898;8.308;2024-02-23T14:37:00;3.03;;;1.10;;
15633;SDS011;14654;48.898;8.308;2024-02-23T14:39:25;2.67;;;0.87;;
15633;SDS011;14654;48.898;8.308;2024-02-23T14:41:51;1.33;;;0.90;;